createdAt,value
2017-10-26T00:01:09.717Z,12.61
2017-10-26T00:03:37.247Z,12.58
2017-10-26T00:06:05.541Z,12.57
2017-10-26T00:08:33.862Z,12.53
2017-10-26T00:11:03.072Z,12.45
2017-10-26T00:13:32.050Z,12.42
2017-10-26T00:16:01.018Z,12.35
2017-10-26T00:18:28.546Z,12.28
2017-10-26T00:20:56.069Z,12.23
2017-10-26T00:23:24.501Z,12.22
2017-10-26T00:25:52.029Z,12.21
2017-10-26T00:28:19.561Z,12.20
2017-10-26T00:30:47.994Z,12.36
2017-10-26T00:33:16.341Z,12.32
2017-10-26T00:35:44.676Z,12.29
2017-10-26T00:38:12.251Z,12.28
2017-10-26T00:40:39.781Z,12.30
2017-10-26T00:43:08.100Z,12.32
2017-10-26T00:45:36.404Z,12.34
2017-10-26T00:48:04.619Z,12.37
2017-10-26T00:50:33.661Z,12.27
2017-10-26T00:53:01.188Z,12.33
2017-10-26T00:55:28.752Z,12.27
2017-10-26T00:57:57.180Z,12.18
2017-10-26T01:00:25.626Z,12.19
2017-10-26T01:02:53.967Z,12.04
2017-10-26T01:05:21.489Z,12.03
2017-10-26T01:07:49.836Z,12.12
2017-10-26T01:10:17.360Z,12.03
2017-10-26T01:12:44.919Z,11.95
2017-10-26T01:15:12.448Z,11.86
2017-10-26T01:17:40.024Z,11.76
2017-10-26T01:20:07.553Z,11.65
2017-10-26T01:22:35.080Z,11.77
2017-10-26T01:25:03.428Z,11.62
2017-10-26T01:27:31.294Z,11.52
2017-10-26T01:30:00.792Z,11.53
2017-10-26T01:32:28.317Z,11.49
2017-10-26T01:34:55.848Z,11.43
2017-10-26T01:37:24.208Z,11.36
2017-10-26T01:39:51.743Z,11.42
2017-10-26T01:42:19.270Z,11.37
2017-10-26T01:44:46.808Z,11.41
2017-10-26T01:47:14.472Z,11.34
2017-10-26T01:49:41.996Z,11.37
2017-10-26T01:52:09.525Z,11.32
2017-10-26T01:54:37.097Z,11.40
2017-10-26T01:57:04.637Z,11.53
2017-10-26T01:59:32.885Z,11.54
2017-10-26T02:02:00.411Z,11.46
2017-10-26T02:04:27.955Z,11.50
2017-10-26T02:06:55.485Z,11.47
2017-10-26T02:09:23.796Z,11.40
2017-10-26T02:11:51.328Z,11.61
2017-10-26T02:14:18.859Z,11.49
2017-10-26T02:16:46.442Z,11.49
2017-10-26T02:19:13.975Z,11.48
2017-10-26T02:21:41.509Z,11.51
2017-10-26T02:24:09.044Z,11.54
2017-10-26T02:26:36.573Z,11.53
2017-10-26T02:29:15.967Z,11.53
2017-10-26T02:31:43.514Z,11.57
2017-10-26T02:34:11.056Z,11.59
2017-10-26T02:36:38.589Z,11.66
2017-10-26T02:39:06.117Z,11.62
2017-10-26T02:41:33.648Z,11.82
2017-10-26T02:44:01.427Z,11.87
2017-10-26T02:46:28.961Z,12.02
2017-10-26T02:48:56.505Z,11.94
2017-10-26T02:51:24.057Z,12.04
2017-10-26T02:53:51.591Z,12.01
2017-10-26T02:56:19.126Z,12.08
2017-10-26T02:58:46.689Z,12.03
2017-10-26T03:01:14.219Z,12.05
2017-10-26T03:03:41.755Z,12.02
2017-10-26T03:06:09.277Z,12.04
2017-10-26T03:08:36.812Z,12.07
2017-10-26T03:11:04.355Z,12.05
2017-10-26T03:13:32.575Z,12.03
2017-10-26T03:16:00.107Z,12.13
2017-10-26T03:18:27.640Z,12.04
2017-10-26T03:20:55.209Z,12.12
2017-10-26T03:23:22.736Z,12.22
2017-10-26T03:25:50.262Z,12.12
2017-10-26T03:28:17.789Z,12.09
2017-10-26T03:30:45.317Z,12.05
2017-10-26T03:33:12.843Z,12.09
2017-10-26T03:35:40.412Z,12.10
2017-10-26T03:38:07.948Z,12.03
2017-10-26T03:40:35.481Z,12.03
2017-10-26T03:43:03.668Z,12.05
2017-10-26T03:45:31.729Z,11.94
2017-10-26T03:48:00.284Z,11.88
2017-10-26T03:50:27.816Z,11.97
2017-10-26T03:52:55.349Z,12.04
2017-10-26T03:55:22.885Z,12.00
2017-10-26T03:57:51.286Z,12.04
2017-10-26T04:00:18.821Z,11.89
2017-10-26T04:02:46.346Z,11.95
2017-10-26T04:05:13.880Z,11.86
2017-10-26T04:07:41.418Z,11.80
2017-10-26T04:10:08.944Z,11.83
2017-10-26T04:12:36.480Z,11.78
2017-10-26T04:15:04.021Z,11.81
2017-10-26T04:17:32.023Z,11.74
2017-10-26T04:19:59.612Z,11.69
2017-10-26T04:22:27.147Z,11.77
2017-10-26T04:24:54.675Z,11.70
2017-10-26T04:27:22.208Z,11.79
2017-10-26T04:29:49.738Z,11.74
2017-10-26T04:32:17.270Z,11.75
2017-10-26T04:34:44.805Z,11.83
2017-10-26T04:37:12.340Z,11.79
2017-10-26T04:39:39.877Z,11.80
2017-10-26T04:42:07.456Z,11.84
2017-10-26T04:44:34.992Z,11.88
2017-10-26T04:47:03.124Z,11.86
2017-10-26T04:49:32.276Z,11.91
2017-10-26T04:51:59.808Z,11.88
2017-10-26T04:54:27.348Z,11.84
2017-10-26T04:56:54.881Z,11.96
2017-10-26T04:59:22.412Z,11.81
2017-10-26T05:01:49.958Z,11.91
2017-10-26T05:04:17.488Z,11.80
2017-10-26T05:06:45.021Z,11.79
2017-10-26T05:09:12.593Z,11.87
2017-10-26T05:11:40.125Z,11.89
2017-10-26T05:14:07.660Z,11.90
2017-10-26T05:16:35.217Z,11.82
2017-10-26T05:19:03.558Z,11.84
2017-10-26T05:21:31.149Z,11.83
2017-10-26T05:23:58.687Z,11.83
2017-10-26T05:26:26.249Z,11.86
2017-10-26T05:28:53.781Z,11.82
2017-10-26T05:31:21.315Z,11.81
2017-10-26T05:33:48.847Z,11.83
2017-10-26T05:36:16.416Z,11.72
2017-10-26T05:38:43.948Z,11.75
2017-10-26T05:41:11.499Z,11.69
2017-10-26T05:43:39.028Z,11.65
2017-10-26T05:46:06.556Z,11.64
2017-10-26T05:48:34.131Z,11.67
2017-10-26T05:51:01.673Z,11.71
2017-10-26T05:53:29.204Z,11.72
2017-10-26T05:55:56.741Z,11.75
2017-10-26T05:58:24.276Z,11.72
2017-10-26T06:00:51.808Z,11.68
2017-10-26T06:03:19.396Z,11.72
2017-10-26T06:05:46.929Z,11.74
2017-10-26T06:08:14.464Z,11.73
2017-10-26T06:10:43.029Z,11.74
2017-10-26T06:13:10.560Z,11.71
2017-10-26T06:15:38.137Z,11.69
2017-10-26T06:18:05.671Z,11.78
2017-10-26T06:20:33.201Z,11.78
2017-10-26T06:23:01.512Z,11.84
2017-10-26T06:25:29.824Z,11.85
2017-10-26T06:27:57.366Z,11.97
2017-10-26T06:30:24.892Z,11.80
2017-10-26T06:32:52.502Z,11.87
2017-10-26T06:35:20.953Z,11.93
2017-10-26T06:37:48.485Z,11.94
2017-10-26T06:40:17.844Z,11.90
2017-10-26T06:42:45.380Z,11.90
2017-10-26T06:45:14.546Z,11.94
2017-10-26T06:47:42.558Z,12.05
2017-10-26T06:50:10.100Z,12.02
2017-10-26T06:52:37.642Z,11.97
2017-10-26T06:55:05.210Z,12.07
2017-10-26T06:57:32.787Z,12.17
2017-10-26T07:00:00.319Z,12.17
2017-10-26T07:02:27.856Z,12.03
2017-10-26T07:04:56.280Z,12.16
2017-10-26T07:07:23.818Z,12.22
2017-10-26T07:09:51.352Z,12.18
2017-10-26T07:12:18.933Z,12.29
2017-10-26T07:14:46.469Z,12.18
2017-10-26T07:17:14.000Z,12.23
2017-10-26T07:19:42.198Z,12.34
2017-10-26T07:22:09.801Z,12.40
2017-10-26T07:24:37.341Z,12.50
2017-10-26T07:27:04.886Z,12.62
2017-10-26T07:29:32.420Z,12.60
2017-10-26T07:32:00.050Z,12.66
2017-10-26T07:34:28.526Z,12.72
2017-10-26T07:36:56.861Z,13.01
2017-10-26T07:39:24.444Z,12.97
2017-10-26T07:41:52.888Z,13.02
2017-10-26T07:44:20.424Z,13.05
2017-10-26T07:46:47.953Z,13.16
2017-10-26T07:49:15.544Z,13.19
2017-10-26T07:51:43.914Z,13.29
2017-10-26T07:54:12.216Z,13.24
2017-10-26T07:56:41.119Z,13.31
2017-10-26T07:59:08.644Z,13.44
2017-10-26T08:01:37.066Z,13.51
2017-10-26T08:04:04.604Z,13.55
2017-10-26T08:06:32.968Z,13.52
2017-10-26T08:09:01.291Z,13.35
2017-10-26T08:11:28.825Z,13.40
2017-10-26T08:13:57.073Z,13.38
2017-10-26T08:16:24.636Z,13.31
2017-10-26T08:18:53.060Z,13.49
2017-10-26T08:21:20.681Z,13.57
2017-10-26T08:23:48.209Z,13.53
2017-10-26T08:26:15.767Z,13.53
2017-10-26T08:28:43.297Z,13.50
2017-10-26T08:31:10.831Z,13.67
2017-10-26T08:33:38.473Z,13.63
2017-10-26T08:36:06.969Z,13.68
2017-10-26T08:38:34.503Z,13.85
2017-10-26T08:41:02.034Z,13.88
2017-10-26T08:43:29.644Z,13.89
2017-10-26T08:45:57.619Z,13.83
2017-10-26T08:48:25.159Z,13.75
2017-10-26T08:50:52.703Z,13.84
2017-10-26T08:53:20.880Z,13.85
2017-10-26T08:55:48.409Z,14.07
2017-10-26T08:58:15.945Z,14.13
2017-10-26T09:00:43.508Z,14.10
2017-10-26T09:03:11.993Z,14.18
2017-10-26T09:05:39.524Z,14.29
2017-10-26T09:08:07.058Z,14.24
2017-10-26T09:10:35.377Z,14.16
2017-10-26T09:13:02.901Z,14.27
2017-10-26T09:15:30.437Z,14.17
2017-10-26T09:17:58.780Z,14.24
2017-10-26T09:20:26.321Z,14.20
2017-10-26T09:22:53.853Z,14.30
2017-10-26T09:25:21.376Z,14.30
2017-10-26T09:27:48.905Z,14.48
2017-10-26T09:30:17.929Z,14.31
2017-10-26T09:32:45.460Z,14.38
2017-10-26T09:35:12.991Z,14.53
2017-10-26T09:37:40.524Z,14.69
2017-10-26T09:40:08.064Z,14.72
2017-10-26T09:42:35.600Z,14.81
2017-10-26T09:45:03.128Z,14.73
2017-10-26T09:47:31.657Z,14.69
2017-10-26T09:49:59.297Z,14.50
2017-10-26T09:52:26.894Z,14.71
2017-10-26T09:54:54.468Z,14.70
2017-10-26T09:57:22.012Z,14.82
2017-10-26T09:59:49.544Z,14.84
2017-10-26T10:02:17.774Z,15.00
2017-10-26T10:04:45.349Z,14.74
2017-10-26T10:07:12.879Z,14.84
2017-10-26T10:09:40.410Z,14.79
2017-10-26T10:12:07.951Z,14.80
2017-10-26T10:14:35.531Z,14.92
2017-10-26T10:17:03.066Z,14.86
2017-10-26T10:19:31.432Z,15.00
2017-10-26T10:21:59.487Z,15.00
2017-10-26T10:24:27.021Z,14.96
2017-10-26T10:26:54.591Z,15.05
2017-10-26T10:29:22.127Z,15.12
2017-10-26T10:31:49.686Z,15.18
2017-10-26T10:34:17.912Z,15.26
2017-10-26T10:36:45.453Z,15.25
2017-10-26T10:39:13.879Z,15.38
2017-10-26T10:41:41.457Z,15.49
2017-10-26T10:44:08.999Z,15.70
2017-10-26T10:46:36.529Z,15.62
2017-10-26T10:49:04.092Z,15.68
2017-10-26T10:51:31.634Z,15.75
2017-10-26T10:53:59.173Z,15.63
2017-10-26T10:56:26.700Z,15.68
2017-10-26T10:58:54.231Z,15.80
2017-10-26T11:01:21.768Z,15.80
2017-10-26T11:03:49.847Z,15.91
2017-10-26T11:06:17.384Z,15.72
2017-10-26T11:08:44.918Z,15.50
2017-10-26T11:11:12.461Z,15.59
2017-10-26T11:13:39.997Z,15.71
2017-10-26T11:16:07.528Z,15.68
2017-10-26T11:18:35.069Z,15.54
2017-10-26T11:21:02.614Z,15.43
2017-10-26T11:23:30.149Z,15.36
2017-10-26T11:25:57.683Z,15.38
2017-10-26T11:28:25.214Z,15.43
2017-10-26T11:30:52.788Z,15.55
2017-10-26T11:33:21.238Z,15.44
2017-10-26T11:35:50.094Z,15.50
2017-10-26T11:38:18.439Z,15.37
2017-10-26T11:40:46.699Z,15.27
2017-10-26T11:43:14.232Z,15.19
2017-10-26T11:45:42.490Z,15.27
2017-10-26T11:48:10.814Z,15.32
2017-10-26T11:50:39.701Z,15.36
2017-10-26T11:53:08.009Z,15.44
2017-10-26T11:55:35.568Z,15.41
2017-10-26T11:58:03.099Z,15.48
2017-10-26T12:00:30.630Z,15.42
2017-10-26T12:02:58.170Z,15.35
2017-10-26T12:05:26.596Z,15.30
2017-10-26T12:07:54.166Z,15.24
2017-10-26T12:10:22.490Z,15.37
2017-10-26T12:12:50.793Z,15.27
2017-10-26T12:15:18.635Z,15.29
2017-10-26T12:17:46.173Z,15.31
2017-10-26T12:20:13.700Z,15.38
2017-10-26T12:22:41.247Z,15.33
2017-10-26T12:25:09.478Z,15.54
2017-10-26T12:27:37.781Z,15.53
2017-10-26T12:30:05.350Z,15.62
2017-10-26T12:32:32.910Z,15.74
2017-10-26T12:35:01.337Z,15.71
2017-10-26T12:37:28.866Z,15.83
2017-10-26T12:39:56.391Z,15.97
2017-10-26T12:42:23.956Z,15.94
2017-10-26T12:44:51.485Z,15.98
2017-10-26T12:47:19.655Z,16.13
2017-10-26T12:49:48.800Z,16.12
2017-10-26T12:52:16.345Z,16.06
2017-10-26T12:54:43.880Z,16.01
2017-10-26T12:57:11.420Z,15.96
2017-10-26T12:59:39.869Z,15.82
2017-10-26T13:02:07.435Z,15.73
2017-10-26T13:04:35.024Z,15.79
2017-10-26T13:07:02.569Z,15.65
2017-10-26T13:09:30.109Z,15.85
2017-10-26T13:11:57.643Z,15.73
2017-10-26T13:14:25.201Z,15.77
2017-10-26T13:16:52.729Z,15.73
2017-10-26T13:19:20.259Z,15.68
2017-10-26T13:21:48.662Z,15.56
2017-10-26T13:24:16.190Z,15.69
2017-10-26T13:26:44.643Z,15.68
2017-10-26T13:29:12.178Z,15.68
2017-10-26T13:31:39.709Z,15.63
2017-10-26T13:34:07.246Z,15.59
2017-10-26T13:36:35.477Z,15.57
2017-10-26T13:39:03.070Z,15.64
2017-10-26T13:41:30.604Z,15.72
2017-10-26T13:43:58.201Z,15.63
2017-10-26T13:46:25.728Z,15.79
2017-10-26T13:48:53.261Z,15.83
2017-10-26T13:51:20.789Z,15.61
2017-10-26T13:53:48.657Z,15.57
2017-10-26T13:56:16.187Z,15.62
2017-10-26T13:58:43.748Z,15.67
2017-10-26T14:01:11.277Z,15.72
2017-10-26T14:03:38.807Z,15.84
2017-10-26T14:06:06.337Z,15.67
2017-10-26T14:08:33.865Z,15.62
2017-10-26T14:11:01.404Z,15.60
2017-10-26T14:13:28.939Z,15.67
2017-10-26T14:15:56.469Z,15.59
2017-10-26T14:18:24.042Z,15.53
2017-10-26T14:20:51.585Z,15.42
2017-10-26T14:23:19.129Z,15.36
2017-10-26T14:25:46.696Z,15.41
2017-10-26T14:28:14.236Z,15.37
2017-10-26T14:30:42.728Z,15.29
2017-10-26T14:33:10.256Z,15.28
2017-10-26T14:35:38.259Z,15.13
2017-10-26T14:38:06.024Z,15.18
2017-10-26T14:40:33.601Z,15.13
2017-10-26T14:43:01.136Z,15.25
2017-10-26T14:45:28.668Z,15.16
2017-10-26T14:47:56.206Z,15.04
2017-10-26T14:50:23.744Z,15.15
2017-10-26T14:52:51.289Z,15.01
2017-10-26T14:55:18.828Z,15.06
2017-10-26T14:57:46.359Z,15.03
2017-10-26T15:00:13.911Z,15.03
2017-10-26T15:02:41.479Z,14.94
2017-10-26T15:05:09.730Z,14.99
2017-10-26T15:07:38.964Z,14.95
2017-10-26T15:10:07.208Z,14.85
2017-10-26T15:12:34.785Z,14.73
2017-10-26T15:15:02.334Z,14.74
2017-10-26T15:17:29.881Z,14.77
2017-10-26T15:19:57.417Z,14.68
2017-10-26T15:22:25.650Z,14.67
2017-10-26T15:24:54.115Z,14.41
2017-10-26T15:27:21.655Z,14.30
2017-10-26T15:29:50.107Z,14.21
2017-10-26T15:32:18.566Z,14.11
2017-10-26T15:34:46.887Z,13.98
2017-10-26T15:37:14.481Z,13.91
2017-10-26T15:39:42.980Z,13.80
2017-10-26T15:42:11.572Z,13.80
2017-10-26T15:44:39.912Z,13.73
2017-10-26T15:47:07.641Z,13.83
2017-10-26T15:49:36.084Z,13.63
2017-10-26T15:52:03.665Z,13.52
2017-10-26T15:54:31.209Z,13.51
2017-10-26T15:56:58.749Z,13.43
2017-10-26T15:59:26.318Z,13.33
2017-10-26T16:01:53.856Z,13.48
2017-10-26T16:04:21.395Z,13.46
2017-10-26T16:06:48.932Z,13.43
2017-10-26T16:09:16.511Z,13.55
2017-10-26T16:11:44.047Z,13.48
2017-10-26T16:14:11.648Z,13.67
2017-10-26T16:16:39.189Z,13.57
2017-10-26T16:19:07.648Z,13.65
2017-10-26T16:21:35.931Z,13.65
2017-10-26T16:24:03.510Z,13.66
2017-10-26T16:26:31.845Z,13.68
2017-10-26T16:28:59.429Z,13.67
2017-10-26T16:31:27.800Z,13.63
2017-10-26T16:33:55.340Z,13.73
2017-10-26T16:36:22.881Z,13.60
2017-10-26T16:38:50.448Z,13.56
2017-10-26T16:41:18.004Z,13.54
2017-10-26T16:43:45.585Z,13.54
2017-10-26T16:46:14.000Z,13.53
2017-10-26T16:48:42.466Z,13.52
2017-10-26T16:51:10.836Z,13.49
2017-10-26T16:53:38.377Z,13.49
2017-10-26T16:56:05.980Z,13.45
2017-10-26T16:58:34.336Z,13.50
2017-10-26T17:01:01.922Z,13.61
2017-10-26T17:03:29.464Z,13.64
2017-10-26T17:05:57.010Z,13.70
2017-10-26T17:08:24.613Z,13.55
2017-10-26T17:10:52.145Z,13.55
2017-10-26T17:13:19.788Z,13.49
2017-10-26T17:15:47.342Z,13.51
2017-10-26T17:18:14.879Z,13.54
2017-10-26T17:20:42.419Z,13.54
2017-10-26T17:23:09.961Z,13.62
2017-10-26T17:25:39.276Z,13.58
2017-10-26T17:28:07.481Z,13.57
2017-10-26T17:30:35.061Z,13.58
2017-10-26T17:33:03.330Z,13.57
2017-10-26T17:35:31.648Z,13.59
2017-10-26T17:37:59.241Z,13.64
2017-10-26T17:40:27.790Z,13.68
2017-10-26T17:42:55.337Z,13.62
2017-10-26T17:45:22.912Z,13.66
2017-10-26T17:47:51.298Z,13.66
2017-10-26T17:50:19.710Z,13.69
2017-10-26T17:52:48.132Z,13.74
2017-10-26T17:55:15.673Z,13.70
2017-10-26T17:57:44.025Z,13.83
2017-10-26T18:00:11.572Z,13.69
2017-10-26T18:02:39.118Z,13.72
2017-10-26T18:05:07.950Z,13.72
2017-10-26T18:07:35.508Z,13.63
2017-10-26T18:10:03.236Z,13.58
2017-10-26T18:12:30.860Z,13.60
2017-10-26T18:14:58.437Z,13.63
2017-10-26T18:17:25.988Z,13.61
2017-10-26T18:19:53.932Z,13.63
2017-10-26T18:22:22.291Z,13.63
2017-10-26T18:24:49.829Z,13.63
2017-10-26T18:27:17.368Z,13.63
2017-10-26T18:29:44.909Z,13.79
2017-10-26T18:32:12.451Z,13.74
2017-10-26T18:34:40.720Z,13.65
2017-10-26T18:37:08.253Z,13.62
2017-10-26T18:39:35.802Z,13.65
2017-10-26T18:42:03.374Z,13.57
2017-10-26T18:44:32.241Z,13.62
2017-10-26T18:46:59.838Z,13.60
2017-10-26T18:49:27.454Z,13.66
2017-10-26T18:51:55.014Z,13.56
2017-10-26T18:54:23.418Z,13.63
2017-10-26T18:56:50.971Z,13.55
2017-10-26T18:59:19.457Z,13.52
2017-10-26T19:01:46.993Z,13.55
2017-10-26T19:04:15.372Z,13.44
2017-10-26T19:06:46.213Z,13.47
2017-10-26T19:09:14.804Z,13.47
2017-10-26T19:11:43.147Z,13.51
2017-10-26T19:14:10.733Z,13.59
2017-10-26T19:16:39.144Z,13.60
2017-10-26T19:19:06.728Z,13.62
2017-10-26T19:21:35.185Z,13.60
2017-10-26T19:24:02.793Z,13.67
2017-10-26T19:26:30.950Z,13.71
2017-10-26T19:28:59.268Z,13.63
2017-10-26T19:31:27.725Z,13.57
2017-10-26T19:33:56.105Z,13.58
2017-10-26T19:36:24.464Z,13.60
2017-10-26T19:38:53.413Z,13.60
2017-10-26T19:41:20.970Z,13.59
2017-10-26T19:43:48.525Z,13.49
2017-10-26T19:46:16.106Z,13.43
2017-10-26T19:48:44.365Z,13.45
2017-10-26T19:51:11.938Z,13.49
2017-10-26T19:53:41.213Z,13.36
2017-10-26T19:56:08.798Z,13.25
2017-10-26T19:58:36.824Z,13.23
2017-10-26T20:01:05.414Z,13.24
2017-10-26T20:03:32.952Z,13.19
2017-10-26T20:06:00.490Z,13.05
2017-10-26T20:08:28.736Z,13.15
2017-10-26T20:10:56.332Z,13.10
2017-10-26T20:13:23.879Z,13.11
2017-10-26T20:15:51.486Z,13.16
2017-10-26T20:18:19.733Z,13.12
2017-10-26T20:20:47.388Z,13.04
2017-10-26T20:23:14.942Z,13.03
2017-10-26T20:25:42.485Z,12.92
2017-10-26T20:28:10.045Z,12.88
2017-10-26T20:30:37.617Z,12.83
2017-10-26T20:33:06.000Z,12.90
2017-10-26T20:35:34.595Z,12.85
2017-10-26T20:38:02.135Z,12.81
2017-10-26T20:40:31.585Z,12.78
2017-10-26T20:42:59.204Z,12.76
2017-10-26T20:45:26.852Z,12.78
2017-10-26T20:47:55.321Z,12.82
2017-10-26T20:50:28.406Z,12.89
2017-10-26T20:53:01.670Z,12.84
2017-10-26T20:55:35.061Z,12.84
2017-10-26T20:58:08.275Z,12.77
2017-10-26T21:00:42.110Z,12.80
2017-10-26T21:03:15.234Z,12.72
2017-10-26T21:09:01.304Z,12.70
2017-10-26T21:11:35.567Z,12.76
2017-10-26T21:14:08.843Z,12.71
2017-10-26T21:16:38.406Z,12.73
2017-10-26T21:19:07.141Z,12.68
2017-10-26T21:21:35.031Z,12.64
2017-10-26T21:24:02.735Z,12.71
2017-10-26T21:26:30.357Z,12.65
2017-10-26T21:28:59.055Z,12.67
2017-10-26T21:31:48.261Z,12.57
2017-10-26T21:34:16.201Z,12.59
2017-10-26T21:36:43.816Z,12.55
2017-10-26T21:39:11.357Z,12.63
2017-10-26T21:41:38.934Z,12.57
2017-10-26T21:44:06.523Z,12.56
2017-10-26T21:46:34.067Z,12.54
2017-10-26T21:49:01.658Z,12.61
2017-10-26T21:51:29.496Z,12.58
2017-10-26T21:53:57.078Z,12.66
2017-10-26T21:56:24.623Z,12.57
2017-10-26T21:58:52.173Z,12.62
2017-10-26T22:01:19.721Z,12.57
2017-10-26T22:03:48.027Z,12.60
2017-10-26T22:06:15.567Z,12.57
2017-10-26T22:08:43.132Z,12.52
2017-10-26T22:11:10.668Z,12.59
2017-10-26T22:13:38.216Z,12.56
2017-10-26T22:16:06.368Z,12.53
2017-10-26T22:18:33.925Z,12.50
2017-10-26T22:21:02.288Z,12.60
2017-10-26T22:23:30.621Z,12.54
2017-10-26T22:25:59.112Z,12.52
2017-10-26T22:28:27.437Z,12.52
2017-10-26T22:30:54.996Z,12.53
2017-10-26T22:33:22.623Z,12.57
2017-10-26T22:35:50.989Z,12.58
2017-10-26T22:38:18.568Z,12.64
2017-10-26T22:40:46.104Z,12.53
2017-10-26T22:43:13.677Z,12.57
2017-10-26T22:45:41.571Z,12.61
2017-10-26T22:48:09.156Z,12.48
2017-10-26T22:50:36.691Z,12.51
2017-10-26T22:53:05.027Z,12.43
2017-10-26T22:55:32.565Z,12.46
2017-10-26T22:58:00.096Z,12.46
2017-10-26T23:00:27.663Z,12.57
2017-10-26T23:02:55.215Z,12.47
2017-10-26T23:05:22.796Z,12.59
2017-10-26T23:07:50.335Z,12.52
2017-10-26T23:10:17.871Z,12.47
2017-10-26T23:12:46.220Z,12.58
2017-10-26T23:15:13.760Z,12.61
2017-10-26T23:17:41.553Z,12.54
2017-10-26T23:20:09.135Z,12.60
2017-10-26T23:22:37.187Z,12.49
2017-10-26T23:25:04.772Z,12.57
2017-10-26T23:27:32.315Z,12.52
2017-10-26T23:29:59.854Z,12.50
2017-10-26T23:32:27.388Z,12.41
2017-10-26T23:34:55.301Z,12.40
2017-10-26T23:37:22.840Z,12.38
2017-10-26T23:39:50.421Z,12.43
2017-10-26T23:42:18.869Z,12.50
2017-10-26T23:44:47.150Z,12.48
2017-10-26T23:47:14.726Z,12.47
2017-10-26T23:49:42.270Z,12.47
2017-10-26T23:52:09.801Z,12.41
2017-10-26T23:54:37.346Z,12.46
2017-10-26T23:57:04.924Z,12.41
2017-10-26T23:59:32.456Z,12.37
